Time;durP1;ratioP1;P1;durP2;ratioP2;P2;SDS_P1;SDS_P2;PMS_P1;PMS_P2;Temp;Humidity;BMP_temperature;BMP_pressure;BME280_temperature;BME280_humidity;BME280_pressure;Samples;Min_cycle;Max_cycle;Signal;HPM_P1;HPM_P2
2021/11/19 00:00:24;;;;;;;67.84;28.83;;;;;;;;;;373041;140;864979;-58
2021/11/19 00:01:28;;;;;;;65.47;29.99;;;;;;;;;;376518;142;857125;-58
2021/11/19 00:02:31;;;;;;;60.79;27.62;;;;;;;;;;371867;141;857199;-60
2021/11/19 00:03:33;;;;;;;61.77;28.84;;;;;;;;;;376885;141;864822;-58
2021/11/19 00:04:36;;;;;;;66.47;30.21;;;;;;;;;;374632;142;857765;-58
2021/11/19 00:05:38;;;;;;;60.01;27.89;;;;;;;;;;370822;140;865885;-59
2021/11/19 00:06:40;;;;;;;65.62;28.45;;;;;;;;;;374940;141;857232;-58
2021/11/19 00:07:41;;;;;;;62.33;27.39;;;;;;;;;;377590;142;858313;-57
2021/11/19 00:08:43;;;;;;;64.36;30.31;;;;;;;;;;373268;140;857425;-59
2021/11/19 00:09:45;;;;;;;61.48;28.00;;;;;;;;;;350240;151;858791;-58
2021/11/19 00:10:46;;;;;;;67.99;29.28;;;;;;;;;;364554;145;866825;-57
2021/11/19 00:11:48;;;;;;;68.39;30.28;;;;;;;;;;371124;140;866064;-58
2021/11/19 00:12:50;;;;;;;59.79;27.89;;;;;;;;;;371597;141;860667;-59
2021/11/19 00:13:51;;;;;;;59.96;27.88;;;;;;;;;;371822;141;857607;-59
2021/11/19 00:14:53;;;;;;;58.73;28.26;;;;;;;;;;377111;142;864764;-59
2021/11/19 00:15:58;;;;;;;66.86;29.65;;;;;;;;;;374183;140;863816;-58
2021/11/19 00:17:06;;;;;;;64.67;28.19;;;;;;;;;;375795;141;858605;-59
2021/11/19 00:18:07;;;;;;;68.72;28.49;;;;;;;;;;374175;142;857121;-58
2021/11/19 00:19:09;;;;;;;60.66;28.26;;;;;;;;;;375098;140;858244;-58
2021/11/19 00:20:13;;;;;;;58.71;28.59;;;;;;;;;;372884;141;865006;-57
2021/11/19 00:21:15;;;;;;;61.69;27.66;;;;;;;;;;376782;142;865294;-58
2021/11/19 00:22:18;;;;;;;60.12;27.83;;;;;;;;;;376461;140;864993;-60
2021/11/19 00:23:19;;;;;;;61.69;28.11;;;;;;;;;;372050;141;859781;-58
2021/11/19 00:24:21;;;;;;;65.87;29.04;;;;;;;;;;377340;141;857609;-58
2021/11/19 00:25:23;;;;;;;58.44;26.94;;;;;;;;;;374868;140;865277;-57
2021/11/19 00:26:25;;;;;;;59.55;28.15;;;;;;;;;;375219;140;859990;-57
2021/11/19 00:27:26;;;;;;;57.13;27.16;;;;;;;;;;372141;142;858607;-56
2021/11/19 00:28:28;;;;;;;57.81;26.17;;;;;;;;;;374489;142;864756;-58
2021/11/19 00:29:30;;;;;;;60.54;25.94;;;;;;;;;;374376;142;864896;-57
2021/11/19 00:30:32;;;;;;;61.03;28.27;;;;;;;;;;372791;141;858687;-56
2021/11/19 00:31:33;;;;;;;57.94;26.85;;;;;;;;;;373337;141;858190;-57
2021/11/19 00:32:35;;;;;;;57.30;26.38;;;;;;;;;;370941;142;859439;-57
2021/11/19 00:33:37;;;;;;;54.80;26.60;;;;;;;;;;371623;141;864753;-58
2021/11/19 00:34:39;;;;;;;61.63;27.62;;;;;;;;;;375534;141;857459;-58
2021/11/19 00:35:42;;;;;;;59.12;27.83;;;;;;;;;;370562;142;857268;-58
2021/11/19 00:36:43;;;;;;;60.13;24.39;;;;;;;;;;370545;140;857693;-60
2021/11/19 00:37:46;;;;;;;63.50;28.45;;;;;;;;;;373369;141;866606;-60
2021/11/19 00:38:48;;;;;;;57.39;26.87;;;;;;;;;;369675;142;865133;-59
2021/11/19 00:39:50;;;;;;;55.16;26.95;;;;;;;;;;373834;142;857075;-60
2021/11/19 00:40:52;;;;;;;55.41;25.64;;;;;;;;;;373818;140;858069;-60
2021/11/19 00:41:54;;;;;;;57.09;27.20;;;;;;;;;;370754;141;865590;-60
2021/11/19 00:42:56;;;;;;;62.89;27.45;;;;;;;;;;366758;143;858716;-60
2021/11/19 00:43:57;;;;;;;58.64;26.16;;;;;;;;;;366075;142;864954;-60
2021/11/19 00:44:59;;;;;;;61.90;26.45;;;;;;;;;;373611;141;865977;-60
2021/11/19 00:46:01;;;;;;;57.70;26.96;;;;;;;;;;370087;142;858341;-60
2021/11/19 00:47:03;;;;;;;54.91;25.85;;;;;;;;;;371047;140;866443;-60
2021/11/19 00:48:04;;;;;;;57.34;27.39;;;;;;;;;;371537;141;866595;-60
2021/11/19 00:49:06;;;;;;;63.42;26.16;;;;;;;;;;373374;142;857231;-61
2021/11/19 00:50:10;;;;;;;53.26;25.22;;;;;;;;;;373626;142;857637;-60
2021/11/19 00:51:13;;;;;;;54.19;26.37;;;;;;;;;;371838;140;857083;-60
2021/11/19 00:52:15;;;;;;;55.23;24.70;;;;;;;;;;375711;141;857650;-60
2021/11/19 00:53:16;;;;;;;58.99;25.55;;;;;;;;;;371422;142;857293;-60
2021/11/19 00:54:18;;;;;;;51.77;25.26;;;;;;;;;;373282;140;858037;-57
2021/11/19 00:55:20;;;;;;;59.28;26.33;;;;;;;;;;372395;141;864603;-60
2021/11/19 00:56:24;;;;;;;56.66;26.12;;;;;;;;;;370297;142;866323;-56
2021/11/19 00:57:26;;;;;;;58.42;27.31;;;;;;;;;;370692;142;857341;-57
2021/11/19 00:58:27;;;;;;;51.68;25.28;;;;;;;;;;371519;141;858778;-57
2021/11/19 00:59:30;;;;;;;61.47;27.32;;;;;;;;;;371450;142;864705;-59
2021/11/19 01:00:33;;;;;;;58.69;26.10;;;;;;;;;;371438;142;857345;-58
2021/11/19 01:01:36;;;;;;;58.76;24.91;;;;;;;;;;372196;140;866796;-58
2021/11/19 01:02:38;;;;;;;51.06;24.61;;;;;;;;;;373602;141;857258;-59
2021/11/19 01:03:39;;;;;;;55.78;24.41;;;;;;;;;;371727;142;859447;-57
2021/11/19 01:04:41;;;;;;;57.34;24.86;;;;;;;;;;365635;143;866239;-58
2021/11/19 01:05:43;;;;;;;49.55;23.70;;;;;;;;;;368367;142;857496;-57
2021/11/19 01:06:45;;;;;;;57.99;25.11;;;;;;;;;;368123;143;857448;-58
2021/11/19 01:07:46;;;;;;;60.19;27.07;;;;;;;;;;366604;142;856735;-57
2021/11/19 01:08:49;;;;;;;50.05;25.05;;;;;;;;;;365504;143;860250;-58
2021/11/19 01:09:53;;;;;;;53.34;25.74;;;;;;;;;;368591;142;857714;-58
2021/11/19 01:10:55;;;;;;;55.32;26.80;;;;;;;;;;370315;142;858926;-57
2021/11/19 01:11:57;;;;;;;56.77;26.13;;;;;;;;;;370865;141;856561;-58
2021/11/19 01:12:59;;;;;;;56.68;25.53;;;;;;;;;;371073;142;866185;-58
2021/11/19 01:14:01;;;;;;;56.28;26.39;;;;;;;;;;373622;141;857047;-61
2021/11/19 01:15:08;;;;;;;58.49;26.02;;;;;;;;;;372171;142;864614;-60
2021/11/19 01:16:12;;;;;;;57.67;24.78;;;;;;;;;;366937;142;857550;-57
2021/11/19 01:17:15;;;;;;;50.48;24.43;;;;;;;;;;367159;143;859695;-60
2021/11/19 01:18:18;;;;;;;52.21;24.28;;;;;;;;;;367513;144;858211;-58
2021/11/19 01:19:22;;;;;;;53.95;24.72;;;;;;;;;;366521;143;857238;-58
2021/11/19 01:20:42;;;;;;;50.00;23.78;;;;;;;;;;367597;144;858274;-57
2021/11/19 01:21:46;;;;;;;55.91;23.84;;;;;;;;;;365776;142;857685;-58
2021/11/19 01:22:48;;;;;;;53.95;23.63;;;;;;;;;;365700;143;857222;-58
2021/11/19 01:23:50;;;;;;;54.65;25.48;;;;;;;;;;369192;142;857296;-58
2021/11/19 01:24:52;;;;;;;52.58;25.10;;;;;;;;;;371605;143;857704;-59
2021/11/19 01:25:55;;;;;;;49.46;24.29;;;;;;;;;;370391;142;864857;-58
2021/11/19 01:26:57;;;;;;;48.59;23.99;;;;;;;;;;367775;142;857675;-58
2021/11/19 01:27:58;;;;;;;46.09;22.95;;;;;;;;;;367433;142;856555;-58
2021/11/19 01:29:01;;;;;;;52.09;23.34;;;;;;;;;;373492;141;857647;-59
2021/11/19 01:30:10;;;;;;;53.25;25.14;;;;;;;;;;368104;142;861110;-60
2021/11/19 01:31:13;;;;;;;49.93;22.82;;;;;;;;;;372388;142;858859;-61
2021/11/19 01:32:16;;;;;;;48.99;23.76;;;;;;;;;;367813;142;857737;-58
2021/11/19 01:33:18;;;;;;;52.57;22.72;;;;;;;;;;365883;143;858696;-59
2021/11/19 01:34:19;;;;;;;49.86;23.08;;;;;;;;;;369315;142;864991;-58
2021/11/19 01:35:21;;;;;;;52.46;24.44;;;;;;;;;;371715;144;864813;-62
2021/11/19 01:36:23;;;;;;;51.81;24.20;;;;;;;;;;367709;142;866695;-58
2021/11/19 01:37:24;;;;;;;47.17;23.69;;;;;;;;;;368848;142;865212;-59
2021/11/19 01:38:26;;;;;;;45.49;22.61;;;;;;;;;;369050;143;866720;-58
2021/11/19 01:39:28;;;;;;;50.76;24.37;;;;;;;;;;367800;142;859484;-58
2021/11/19 01:40:31;;;;;;;49.45;24.08;;;;;;;;;;367804;143;859952;-58
2021/11/19 01:41:35;;;;;;;53.51;24.21;;;;;;;;;;368984;143;857523;-58
2021/11/19 01:42:39;;;;;;;49.39;23.82;;;;;;;;;;371527;143;857237;-59
2021/11/19 01:43:41;;;;;;;47.69;22.95;;;;;;;;;;367264;142;859367;-59
2021/11/19 01:44:44;;;;;;;47.53;22.15;;;;;;;;;;370466;142;860842;-58
2021/11/19 01:45:47;;;;;;;45.73;23.20;;;;;;;;;;370285;143;860633;-58
2021/11/19 01:46:50;;;;;;;44.99;22.64;;;;;;;;;;366772;143;857219;-58
2021/11/19 01:47:53;;;;;;;43.81;21.92;;;;;;;;;;365721;142;857294;-58
2021/11/19 01:48:55;;;;;;;49.93;24.85;;;;;;;;;;370116;142;864852;-58
2021/11/19 01:49:57;;;;;;;52.26;23.65;;;;;;;;;;368858;142;857447;-59
2021/11/19 01:51:01;;;;;;;47.95;25.17;;;;;;;;;;368225;142;866736;-59
2021/11/19 01:52:04;;;;;;;44.90;22.42;;;;;;;;;;369655;142;865330;-58
2021/11/19 01:53:14;;;;;;;41.10;20.75;;;;;;;;;;372079;144;857339;-59
2021/11/19 01:54:18;;;;;;;43.24;21.96;;;;;;;;;;366022;142;865719;-59
2021/11/19 01:55:22;;;;;;;41.18;20.69;;;;;;;;;;369050;142;858705;-59
2021/11/19 01:56:38;;;;;;;40.81;22.26;;;;;;;;;;362083;148;858920;-58
2021/11/19 01:57:41;;;;;;;45.48;22.63;;;;;;;;;;356395;146;865716;-59
2021/11/19 01:58:45;;;;;;;37.60;19.65;;;;;;;;;;353955;147;858200;-58
2021/11/19 01:59:48;;;;;;;37.63;21.46;;;;;;;;;;354068;150;864840;-58
2021/11/19 02:00:55;;;;;;;42.41;20.88;;;;;;;;;;357466;145;858457;-58
2021/11/19 02:01:58;;;;;;;37.92;20.99;;;;;;;;;;352524;148;864863;-59
2021/11/19 02:03:00;;;;;;;42.70;21.25;;;;;;;;;;358256;148;858623;-58
2021/11/19 02:04:04;;;;;;;40.93;19.86;;;;;;;;;;359493;145;866636;-58
2021/11/19 02:05:07;;;;;;;38.92;20.04;;;;;;;;;;351233;149;865367;-59
2021/11/19 02:06:13;;;;;;;37.39;20.26;;;;;;;;;;353339;150;858142;-59
2021/11/19 02:07:22;;;;;;;46.88;20.61;;;;;;;;;;353988;149;857555;-58
2021/11/19 02:08:24;;;;;;;38.25;19.97;;;;;;;;;;357473;147;858300;-58
2021/11/19 02:09:46;;;;;;;42.91;20.51;;;;;;;;;;359817;147;859651;-59
2021/11/19 02:11:08;;;;;;;42.49;20.69;;;;;;;;;;351651;150;856995;-58
2021/11/19 02:12:21;;;;;;;39.81;20.03;;;;;;;;;;353303;149;859991;-58
2021/11/19 02:13:44;;;;;;;38.22;20.29;;;;;;;;;;343019;153;857737;-59
2021/11/19 02:14:51;;;;;;;42.46;20.17;;;;;;;;;;347143;152;859306;-59
2021/11/19 02:15:54;;;;;;;39.12;20.39;;;;;;;;;;352429;149;859201;-58
2021/11/19 02:16:57;;;;;;;41.80;21.44;;;;;;;;;;352971;150;859567;-58
2021/11/19 02:18:03;;;;;;;36.00;20.27;;;;;;;;;;352108;150;865214;-58
2021/11/19 02:19:06;;;;;;;39.96;19.92;;;;;;;;;;352663;149;856060;-59
2021/11/19 02:20:10;;;;;;;38.03;19.46;;;;;;;;;;352863;150;857386;-58
2021/11/19 02:21:13;;;;;;;38.89;20.23;;;;;;;;;;365704;144;864806;-59
2021/11/19 02:22:17;;;;;;;38.54;20.96;;;;;;;;;;369307;142;859959;-58
2021/11/19 02:23:23;;;;;;;36.55;19.67;;;;;;;;;;368287;142;865833;-59
2021/11/19 02:24:36;;;;;;;39.44;19.81;;;;;;;;;;368035;144;864656;-57
2021/11/19 02:25:42;;;;;;;39.73;18.73;;;;;;;;;;365957;143;857380;-60
2021/11/19 02:26:46;;;;;;;35.72;19.14;;;;;;;;;;369887;142;857344;-59
2021/11/19 02:27:49;;;;;;;36.13;18.07;;;;;;;;;;369477;143;858042;-59
2021/11/19 02:28:51;;;;;;;38.05;19.07;;;;;;;;;;366080;142;856515;-59
2021/11/19 02:29:55;;;;;;;35.51;19.49;;;;;;;;;;368746;142;857306;-59
2021/11/19 02:30:59;;;;;;;35.25;17.36;;;;;;;;;;368599;143;860355;-58
2021/11/19 02:32:02;;;;;;;30.19;16.78;;;;;;;;;;367667;142;858582;-59
2021/11/19 02:33:05;;;;;;;36.86;17.73;;;;;;;;;;366799;142;858179;-58
2021/11/19 02:34:07;;;;;;;34.88;18.45;;;;;;;;;;368122;142;859022;-58
2021/11/19 02:35:10;;;;;;;31.53;16.99;;;;;;;;;;366877;144;864941;-57
2021/11/19 02:36:14;;;;;;;28.97;15.67;;;;;;;;;;366650;142;865710;-57
2021/11/19 02:37:23;;;;;;;29.87;16.13;;;;;;;;;;368611;142;857202;-58
2021/11/19 02:38:27;;;;;;;29.79;15.74;;;;;;;;;;367644;144;857617;-58
2021/11/19 02:39:30;;;;;;;36.27;17.79;;;;;;;;;;366413;142;857658;-58
2021/11/19 02:40:33;;;;;;;37.05;16.44;;;;;;;;;;367536;144;857545;-57
2021/11/19 02:41:36;;;;;;;31.71;16.17;;;;;;;;;;370439;143;864918;-58
2021/11/19 02:42:39;;;;;;;30.91;15.23;;;;;;;;;;372035;142;867499;-58
2021/11/19 02:43:43;;;;;;;28.25;15.14;;;;;;;;;;369719;142;860296;-57
2021/11/19 02:44:44;;;;;;;32.09;15.81;;;;;;;;;;367493;143;857771;-57
2021/11/19 02:45:47;;;;;;;28.98;14.74;;;;;;;;;;368369;144;856299;-58
2021/11/19 02:46:51;;;;;;;29.23;15.08;;;;;;;;;;369687;142;866916;-58
2021/11/19 02:47:53;;;;;;;31.13;16.35;;;;;;;;;;367324;143;865750;-58
2021/11/19 02:48:54;;;;;;;26.64;14.86;;;;;;;;;;370952;143;857085;-57
2021/11/19 02:49:57;;;;;;;26.36;14.90;;;;;;;;;;371090;142;864979;-57
2021/11/19 02:51:00;;;;;;;28.74;16.09;;;;;;;;;;367930;143;865281;-58
2021/11/19 02:52:02;;;;;;;27.25;15.16;;;;;;;;;;369340;144;857137;-58
2021/11/19 02:53:04;;;;;;;25.77;14.82;;;;;;;;;;367729;142;857173;-57
2021/11/19 02:54:07;;;;;;;29.49;15.86;;;;;;;;;;365548;142;857742;-57
2021/11/19 02:55:14;;;;;;;27.75;14.72;;;;;;;;;;369009;142;858975;-58
2021/11/19 02:56:16;;;;;;;25.03;14.17;;;;;;;;;;368508;144;858816;-58
2021/11/19 02:57:18;;;;;;;25.74;14.80;;;;;;;;;;369058;142;857813;-57
2021/11/19 02:58:21;;;;;;;28.43;14.37;;;;;;;;;;370893;142;857295;-57
2021/11/19 02:59:22;;;;;;;26.52;14.84;;;;;;;;;;372857;143;864001;-58
2021/11/19 03:00:27;;;;;;;28.18;13.87;;;;;;;;;;366311;142;857882;-58
2021/11/19 03:01:36;;;;;;;25.36;13.34;;;;;;;;;;367920;142;857267;-60
2021/11/19 03:02:37;;;;;;;27.28;14.39;;;;;;;;;;368362;143;857120;-58
2021/11/19 03:03:40;;;;;;;27.71;14.19;;;;;;;;;;373003;142;860513;-61
2021/11/19 03:04:43;;;;;;;29.55;13.89;;;;;;;;;;371232;141;859122;-58
2021/11/19 03:05:45;;;;;;;23.68;13.99;;;;;;;;;;370906;142;859035;-57
2021/11/19 03:06:48;;;;;;;25.86;13.34;;;;;;;;;;372836;141;856996;-57
2021/11/19 03:07:49;;;;;;;24.83;13.97;;;;;;;;;;373049;140;864873;-59
2021/11/19 03:08:51;;;;;;;25.75;13.22;;;;;;;;;;374094;141;867028;-59
2021/11/19 03:09:54;;;;;;;27.49;13.96;;;;;;;;;;374790;142;864737;-58
2021/11/19 03:10:56;;;;;;;26.94;13.43;;;;;;;;;;373377;140;866559;-61
2021/11/19 03:11:58;;;;;;;30.97;12.92;;;;;;;;;;372279;141;864062;-61
2021/11/19 03:13:01;;;;;;;24.77;13.95;;;;;;;;;;370259;142;855998;-59
2021/11/19 03:14:05;;;;;;;26.47;13.44;;;;;;;;;;370949;141;857583;-59
2021/11/19 03:15:08;;;;;;;24.67;13.48;;;;;;;;;;372492;140;858887;-59
2021/11/19 03:16:11;;;;;;;26.68;15.41;;;;;;;;;;371592;141;865073;-59
2021/11/19 03:17:13;;;;;;;19.85;11.31;;;;;;;;;;372769;142;857098;-60
2021/11/19 03:18:15;;;;;;;28.61;14.78;;;;;;;;;;372422;140;864737;-59
2021/11/19 03:19:17;;;;;;;29.31;14.26;;;;;;;;;;372162;141;858723;-58
2021/11/19 03:20:20;;;;;;;26.31;14.03;;;;;;;;;;372188;139;858817;-58
2021/11/19 03:21:24;;;;;;;24.95;13.72;;;;;;;;;;375499;139;856379;-58
2021/11/19 03:22:26;;;;;;;24.67;13.52;;;;;;;;;;372685;141;859201;-58
2021/11/19 03:23:28;;;;;;;22.32;13.31;;;;;;;;;;370159;141;859490;-58
2021/11/19 03:24:30;;;;;;;25.97;14.48;;;;;;;;;;372297;140;857136;-58
2021/11/19 03:25:33;;;;;;;27.20;13.95;;;;;;;;;;373748;141;858827;-60
2021/11/19 03:26:35;;;;;;;28.39;13.30;;;;;;;;;;375606;142;858441;-60
2021/11/19 03:27:36;;;;;;;21.27;12.48;;;;;;;;;;370477;142;857313;-58
2021/11/19 03:28:38;;;;;;;24.20;12.76;;;;;;;;;;372252;140;864841;-59
2021/11/19 03:29:40;;;;;;;25.62;14.34;;;;;;;;;;371389;142;864956;-59
2021/11/19 03:30:42;;;;;;;29.85;13.84;;;;;;;;;;370914;140;857517;-59
2021/11/19 03:31:43;;;;;;;22.03;13.29;;;;;;;;;;374401;142;865826;-58
2021/11/19 03:32:45;;;;;;;25.16;12.46;;;;;;;;;;372498;141;856802;-58
2021/11/19 03:33:47;;;;;;;25.81;13.84;;;;;;;;;;371843;142;866115;-58
2021/11/19 03:34:49;;;;;;;26.95;14.90;;;;;;;;;;369790;142;856241;-58
2021/11/19 03:35:50;;;;;;;30.24;14.91;;;;;;;;;;371733;140;857074;-58
2021/11/19 03:36:53;;;;;;;22.63;13.51;;;;;;;;;;372896;141;864091;-61
2021/11/19 03:37:55;;;;;;;23.69;14.09;;;;;;;;;;370834;142;858906;-59
2021/11/19 03:38:57;;;;;;;24.96;14.35;;;;;;;;;;371351;140;861865;-59
2021/11/19 03:39:59;;;;;;;25.45;14.89;;;;;;;;;;372057;141;865477;-58
2021/11/19 03:41:01;;;;;;;22.90;13.27;;;;;;;;;;372733;142;857688;-59
2021/11/19 03:42:03;;;;;;;25.86;14.06;;;;;;;;;;374171;140;859480;-59
2021/11/19 03:43:06;;;;;;;28.67;14.91;;;;;;;;;;372954;140;857213;-58
2021/11/19 03:44:18;;;;;;;27.37;14.87;;;;;;;;;;375027;141;857753;-61
2021/11/19 03:45:22;;;;;;;27.02;15.41;;;;;;;;;;373736;142;859344;-59
2021/11/19 03:46:27;;;;;;;24.23;13.08;;;;;;;;;;373534;141;857651;-58
2021/11/19 03:47:33;;;;;;;26.30;14.21;;;;;;;;;;371305;141;859441;-58
2021/11/19 03:48:35;;;;;;;25.56;14.01;;;;;;;;;;371867;142;865721;-59
2021/11/19 03:49:36;;;;;;;30.01;14.90;;;;;;;;;;371863;140;858245;-59
2021/11/19 03:50:46;;;;;;;28.74;15.57;;;;;;;;;;370551;141;865000;-58
2021/11/19 03:51:49;;;;;;;27.38;14.96;;;;;;;;;;373251;142;865074;-60
2021/11/19 03:52:51;;;;;;;29.52;15.18;;;;;;;;;;374159;140;856929;-60
2021/11/19 03:53:53;;;;;;;27.65;15.37;;;;;;;;;;372364;141;857089;-60
2021/11/19 03:54:56;;;;;;;26.18;14.57;;;;;;;;;;373646;142;864810;-60
2021/11/19 03:55:58;;;;;;;27.29;14.89;;;;;;;;;;372911;140;864125;-62
2021/11/19 03:57:00;;;;;;;25.90;14.19;;;;;;;;;;371180;141;857198;-61
2021/11/19 03:58:01;;;;;;;27.54;14.54;;;;;;;;;;373614;141;857292;-61
2021/11/19 03:59:04;;;;;;;28.28;14.88;;;;;;;;;;372613;142;865086;-61
2021/11/19 04:00:10;;;;;;;25.69;13.51;;;;;;;;;;371022;140;860463;-61
2021/11/19 04:01:17;;;;;;;27.07;14.41;;;;;;;;;;373798;140;859921;-61
2021/11/19 04:02:19;;;;;;;24.49;13.65;;;;;;;;;;378941;140;857174;-59
2021/11/19 04:03:21;;;;;;;26.85;13.48;;;;;;;;;;372017;140;856869;-59
2021/11/19 04:04:23;;;;;;;27.71;14.49;;;;;;;;;;373177;140;859031;-58
2021/11/19 04:05:26;;;;;;;25.99;14.03;;;;;;;;;;367879;142;865412;-60
2021/11/19 04:06:28;;;;;;;29.07;15.21;;;;;;;;;;365620;140;857631;-59
2021/11/19 04:07:29;;;;;;;31.79;15.88;;;;;;;;;;357050;146;866665;-65
2021/11/19 04:08:31;;;;;;;27.36;14.52;;;;;;;;;;355005;148;865524;-60
2021/11/19 04:09:32;;;;;;;30.85;14.89;;;;;;;;;;353977;146;865438;-60
2021/11/19 04:10:34;;;;;;;28.73;14.56;;;;;;;;;;355931;146;857438;-62
2021/11/19 04:11:36;;;;;;;27.59;14.51;;;;;;;;;;360622;145;859171;-62
2021/11/19 04:12:38;;;;;;;26.56;13.54;;;;;;;;;;354320;150;865478;-61
2021/11/19 04:13:40;;;;;;;26.01;15.00;;;;;;;;;;355652;148;858332;-63
2021/11/19 04:14:41;;;;;;;25.40;14.78;;;;;;;;;;355724;146;864963;-62
2021/11/19 04:15:45;;;;;;;26.71;14.41;;;;;;;;;;354238;150;857256;-59
2021/11/19 04:16:47;;;;;;;31.19;15.96;;;;;;;;;;352887;151;859304;-64
2021/11/19 04:17:49;;;;;;;26.58;14.77;;;;;;;;;;353395;146;861864;-59
2021/11/19 04:18:51;;;;;;;25.76;14.01;;;;;;;;;;354208;148;858111;-65
2021/11/19 04:19:52;;;;;;;28.38;15.48;;;;;;;;;;355197;150;865527;-63
2021/11/19 04:20:54;;;;;;;36.74;17.69;;;;;;;;;;353817;147;857190;-60
2021/11/19 04:21:57;;;;;;;24.79;14.06;;;;;;;;;;353778;146;856175;-62
2021/11/19 04:22:59;;;;;;;27.95;15.25;;;;;;;;;;353697;150;864166;-58
2021/11/19 04:24:01;;;;;;;28.71;15.82;;;;;;;;;;354013;150;858274;-58
2021/11/19 04:25:05;;;;;;;26.98;15.20;;;;;;;;;;354286;147;865904;-60
2021/11/19 04:26:07;;;;;;;31.37;16.38;;;;;;;;;;356276;148;860527;-59
2021/11/19 04:27:09;;;;;;;27.86;15.06;;;;;;;;;;354367;150;858936;-62
2021/11/19 04:28:10;;;;;;;32.89;16.29;;;;;;;;;;352749;150;858710;-61
2021/11/19 04:29:12;;;;;;;29.20;14.87;;;;;;;;;;354745;148;857130;-60
2021/11/19 04:30:16;;;;;;;30.83;16.79;;;;;;;;;;353456;150;857539;-61
2021/11/19 04:31:19;;;;;;;30.08;16.59;;;;;;;;;;352590;150;857211;-63
2021/11/19 04:32:24;;;;;;;28.27;15.55;;;;;;;;;;353192;148;857197;-61
2021/11/19 04:33:26;;;;;;;35.77;16.34;;;;;;;;;;354469;150;857232;-59
2021/11/19 04:34:27;;;;;;;31.96;15.29;;;;;;;;;;354229;150;857326;-59
2021/11/19 04:35:30;;;;;;;22.99;11.93;;;;;;;;;;353247;146;857281;-59
2021/11/19 04:36:32;;;;;;;26.99;14.19;;;;;;;;;;354936;148;857769;-61
2021/11/19 04:37:34;;;;;;;28.87;16.61;;;;;;;;;;354478;150;857263;-60
2021/11/19 04:38:35;;;;;;;27.34;15.23;;;;;;;;;;354203;148;859031;-60
2021/11/19 04:39:37;;;;;;;28.36;15.33;;;;;;;;;;354174;148;860987;-60
2021/11/19 04:40:38;;;;;;;24.31;11.76;;;;;;;;;;355133;150;865029;-60
2021/11/19 04:41:40;;;;;;;23.54;12.26;;;;;;;;;;355161;149;864808;-60
2021/11/19 04:42:42;;;;;;;27.75;14.53;;;;;;;;;;352725;146;864829;-60
2021/11/19 04:43:44;;;;;;;20.37;11.90;;;;;;;;;;354960;150;857438;-61
2021/11/19 04:44:45;;;;;;;26.97;14.69;;;;;;;;;;352977;150;865531;-61
2021/11/19 04:45:47;;;;;;;20.74;11.89;;;;;;;;;;353418;147;863964;-61
2021/11/19 04:46:49;;;;;;;24.29;14.20;;;;;;;;;;353414;148;857411;-61
2021/11/19 04:47:50;;;;;;;20.39;11.66;;;;;;;;;;354244;150;866636;-60
2021/11/19 04:48:52;;;;;;;26.31;13.43;;;;;;;;;;354966;150;858386;-58
2021/11/19 04:49:53;;;;;;;20.39;11.29;;;;;;;;;;353245;147;865717;-59
2021/11/19 04:50:55;;;;;;;19.11;10.66;;;;;;;;;;353493;150;858480;-61
2021/11/19 04:51:57;;;;;;;24.26;13.85;;;;;;;;;;353460;150;863831;-59
2021/11/19 04:52:58;;;;;;;19.52;11.51;;;;;;;;;;354051;146;857366;-59
2021/11/19 04:54:00;;;;;;;22.95;11.94;;;;;;;;;;355000;149;857011;-58
2021/11/19 04:55:02;;;;;;;21.41;10.61;;;;;;;;;;354734;150;863807;-58
2021/11/19 04:56:04;;;;;;;22.40;11.45;;;;;;;;;;353495;147;858943;-62
2021/11/19 04:57:06;;;;;;;22.49;12.05;;;;;;;;;;354419;148;859325;-60
2021/11/19 04:58:07;;;;;;;21.73;12.03;;;;;;;;;;355362;146;857725;-59
2021/11/19 04:59:09;;;;;;;29.95;14.52;;;;;;;;;;353225;150;864950;-59
2021/11/19 05:00:17;;;;;;;26.63;15.01;;;;;;;;;;353176;147;857976;-59
2021/11/19 05:01:20;;;;;;;28.30;14.19;;;;;;;;;;353297;150;865800;-59
2021/11/19 05:02:21;;;;;;;18.14;9.31;;;;;;;;;;353272;151;857620;-59
2021/11/19 05:03:23;;;;;;;19.49;11.50;;;;;;;;;;353491;146;859191;-59
2021/11/19 05:04:25;;;;;;;18.95;10.26;;;;;;;;;;353535;148;864891;-60
2021/11/19 05:05:26;;;;;;;24.15;12.45;;;;;;;;;;354243;148;864856;-58
2021/11/19 05:06:28;;;;;;;20.29;10.72;;;;;;;;;;361193;146;862621;-60
2021/11/19 05:07:30;;;;;;;23.36;12.54;;;;;;;;;;372496;141;859324;-60
2021/11/19 05:08:32;;;;;;;21.81;10.75;;;;;;;;;;370734;142;865105;-62
2021/11/19 05:09:34;;;;;;;27.99;13.38;;;;;;;;;;374421;142;857774;-60
2021/11/19 05:10:36;;;;;;;23.84;12.14;;;;;;;;;;371969;140;864961;-60
2021/11/19 05:11:40;;;;;;;25.35;11.97;;;;;;;;;;372112;140;857763;-60
2021/11/19 05:12:43;;;;;;;26.16;13.74;;;;;;;;;;371410;142;857339;-59
2021/11/19 05:13:44;;;;;;;23.19;12.29;;;;;;;;;;374004;140;857898;-59
2021/11/19 05:14:49;;;;;;;21.65;13.02;;;;;;;;;;371625;141;857789;-61
2021/11/19 05:15:52;;;;;;;23.99;13.62;;;;;;;;;;373752;142;864984;-59
2021/11/19 05:16:54;;;;;;;22.46;11.99;;;;;;;;;;373147;140;864324;-61
2021/11/19 05:17:57;;;;;;;27.73;14.04;;;;;;;;;;373077;139;859579;-63
2021/11/19 05:18:59;;;;;;;24.22;14.12;;;;;;;;;;373724;141;864830;-63
2021/11/19 05:20:02;;;;;;;26.90;13.93;;;;;;;;;;370457;142;866099;-60
2021/11/19 05:22:27;;;;;;;22.53;12.05;;;;;;;;;;348744;149;858952;-60
2021/11/19 05:23:29;;;;;;;27.76;12.15;;;;;;;;;;349465;151;857278;-60
2021/11/19 05:24:30;;;;;;;22.16;12.74;;;;;;;;;;349010;149;864596;-61
2021/11/19 05:25:32;;;;;;;24.96;12.76;;;;;;;;;;350059;145;865769;-60
2021/11/19 05:26:35;;;;;;;25.12;13.41;;;;;;;;;;348212;152;866600;-59
2021/11/19 05:27:37;;;;;;;28.91;12.05;;;;;;;;;;353452;147;857855;-60
2021/11/19 05:28:43;;;;;;;23.12;14.07;;;;;;;;;;350249;148;857211;-60
2021/11/19 05:29:45;;;;;;;25.42;13.75;;;;;;;;;;354271;144;864939;-59
2021/11/19 05:30:46;;;;;;;28.14;13.53;;;;;;;;;;347884;149;860385;-59
2021/11/19 05:31:48;;;;;;;26.88;13.56;;;;;;;;;;350391;148;857379;-60
2021/11/19 05:32:51;;;;;;;23.71;12.67;;;;;;;;;;348191;150;865085;-57
2021/11/19 05:33:53;;;;;;;23.21;12.14;;;;;;;;;;349572;149;858316;-59
2021/11/19 05:34:54;;;;;;;29.24;13.34;;;;;;;;;;351762;148;857608;-60
2021/11/19 05:35:56;;;;;;;23.56;12.94;;;;;;;;;;349939;149;866238;-58
2021/11/19 05:36:58;;;;;;;31.86;11.94;;;;;;;;;;349712;152;858639;-60
2021/11/19 05:38:00;;;;;;;25.59;10.98;;;;;;;;;;350459;149;864947;-60
2021/11/19 05:39:01;;;;;;;22.15;11.12;;;;;;;;;;349516;148;865437;-63
2021/11/19 05:40:04;;;;;;;26.52;14.39;;;;;;;;;;349473;149;858666;-57
2021/11/19 05:41:06;;;;;;;24.67;11.89;;;;;;;;;;346961;155;858496;-58
2021/11/19 05:42:08;;;;;;;25.37;13.55;;;;;;;;;;346121;151;857390;-59
2021/11/19 05:43:10;;;;;;;25.90;13.24;;;;;;;;;;348175;151;864729;-59
2021/11/19 05:44:12;;;;;;;24.11;13.25;;;;;;;;;;347619;150;865811;-58
2021/11/19 05:45:14;;;;;;;21.97;11.70;;;;;;;;;;346360;151;858907;-57
2021/11/19 05:46:18;;;;;;;22.23;12.34;;;;;;;;;;345322;151;865405;-59
2021/11/19 05:47:20;;;;;;;22.55;12.06;;;;;;;;;;346765;152;857228;-58
2021/11/19 05:48:22;;;;;;;23.91;12.59;;;;;;;;;;346086;154;857561;-61
2021/11/19 05:49:23;;;;;;;19.27;10.96;;;;;;;;;;346254;151;865182;-60
2021/11/19 05:50:26;;;;;;;21.45;11.38;;;;;;;;;;348707;152;865282;-61
2021/11/19 05:51:28;;;;;;;24.19;12.57;;;;;;;;;;344510;151;858110;-61
2021/11/19 05:52:29;;;;;;;25.91;13.33;;;;;;;;;;343720;152;859727;-61
2021/11/19 05:53:31;;;;;;;29.18;15.15;;;;;;;;;;346721;152;865031;-63
2021/11/19 05:54:34;;;;;;;24.26;13.05;;;;;;;;;;347424;154;865825;-62
2021/11/19 05:55:37;;;;;;;27.47;13.19;;;;;;;;;;347793;154;857820;-61
2021/11/19 05:56:39;;;;;;;23.59;12.13;;;;;;;;;;346414;151;859294;-61
2021/11/19 05:57:40;;;;;;;21.90;12.09;;;;;;;;;;348079;152;864956;-60
2021/11/19 05:58:42;;;;;;;25.18;13.52;;;;;;;;;;347877;154;863693;-59
2021/11/19 05:59:44;;;;;;;19.21;9.89;;;;;;;;;;347455;151;865438;-61
2021/11/19 06:00:47;;;;;;;20.67;10.23;;;;;;;;;;348195;151;857365;-61
2021/11/19 06:01:49;;;;;;;25.17;12.12;;;;;;;;;;344983;154;856595;-60